Aurora, Missouri
Current Conditions -  °F | °C
As of 3:55 AM on Wednesday 26 Nov 2014 (Local Time) from KHFJ Reporting Station
Overcast Overcast  
Wind Chill: 28°   Ceiling: 11000
Heat Index: 36°   Visibility: 10mi
Dew Point: 25°   Wind: 10mph
Humidity: 65%   Direction: 150°SSE
Pressure: 29.95"   Gusts: NA
Location:  36.97°N, 93.72°W
Report Text: KHFJ 260955Z AUTO 15009KT 10SM OVC110 02/M04 A2995 RMK AO2
Loading
Personal Weather Stations






























Interactive Weather Map New forecast layout! Learn more

10-Day Weather Forecast

Advertisements
Track Severe Weather on mobile